createdAt,value
2023-08-15T00:02:35.847Z,100689.19
2023-08-15T00:05:39.326Z,100685.66
2023-08-15T00:08:42.585Z,100689.97
2023-08-15T00:11:45.624Z,100692.22
2023-08-15T00:14:48.850Z,100687.94
2023-08-15T00:17:52.067Z,100690.78
2023-08-15T00:20:55.301Z,100690.31
2023-08-15T00:23:58.406Z,100681.41
2023-08-15T00:27:01.507Z,100677.91
2023-08-15T00:30:05.907Z,100685.78
2023-08-15T00:33:11.327Z,100683.75
2023-08-15T00:36:15.168Z,100682.16
2023-08-15T00:39:19.529Z,100681.22
2023-08-15T00:42:22.662Z,100682.00
2023-08-15T00:45:26.484Z,100686.75
2023-08-15T00:48:31.328Z,100686.88
2023-08-15T00:51:35.068Z,100680.00
2023-08-15T00:54:40.405Z,100688.41
2023-08-15T00:57:43.519Z,100684.69
2023-08-15T01:00:46.917Z,100682.41
2023-08-15T01:03:50.563Z,100682.88
2023-08-15T01:06:53.870Z,100682.88
2023-08-15T01:09:56.810Z,100685.34
2023-08-15T01:13:09.187Z,100689.94
2023-08-15T01:16:23.198Z,100683.03
2023-08-15T01:19:42.452Z,100688.28
2023-08-15T01:22:49.385Z,100680.59
2023-08-15T01:25:56.693Z,100677.84
2023-08-15T01:28:59.666Z,100679.53
2023-08-15T01:32:27.676Z,100684.16
2023-08-15T01:35:46.829Z,100683.75
2023-08-15T01:38:57.394Z,100689.25
2023-08-15T01:42:02.768Z,100685.63
2023-08-15T01:45:09.092Z,100682.47
2023-08-15T01:48:12.030Z,100683.22
2023-08-15T01:51:15.278Z,100679.41
2023-08-15T01:54:18.629Z,100678.19
2023-08-15T01:57:21.988Z,100682.34
2023-08-15T02:00:25.449Z,100689.25
2023-08-15T02:03:28.625Z,100678.75
2023-08-15T02:06:31.988Z,100675.16
2023-08-15T02:09:35.152Z,100677.66
2023-08-15T02:12:38.297Z,100677.81
2023-08-15T02:15:41.637Z,100674.88
2023-08-15T02:18:44.680Z,100681.50
2023-08-15T02:21:47.879Z,100684.38
2023-08-15T02:24:51.106Z,100686.53
2023-08-15T02:27:54.372Z,100676.13
2023-08-15T02:30:59.324Z,100669.72
2023-08-15T02:34:04.194Z,100670.31
2023-08-15T02:37:07.288Z,100679.38
2023-08-15T02:40:11.271Z,100675.56
2023-08-15T02:43:14.587Z,100678.03
2023-08-15T02:46:18.692Z,100673.09
2023-08-15T02:49:21.967Z,100677.72
2023-08-15T02:52:26.097Z,100676.97
2023-08-15T02:55:29.202Z,100681.13
2023-08-15T02:58:32.601Z,100683.00
2023-08-15T03:04:53.191Z,100678.38
2023-08-15T03:07:56.574Z,100679.03
2023-08-15T03:11:00.274Z,100672.59
2023-08-15T03:14:04.437Z,100670.59
2023-08-15T03:17:09.502Z,100673.97
2023-08-15T03:20:13.299Z,100676.09
2023-08-15T03:23:16.505Z,100673.34
2023-08-15T03:26:19.663Z,100677.00
2023-08-15T03:29:23.009Z,100674.13
2023-08-15T03:32:26.464Z,100667.38
2023-08-15T03:35:29.592Z,100671.97
2023-08-15T03:38:32.942Z,100671.03
2023-08-15T03:41:36.385Z,100677.78
2023-08-15T03:44:39.399Z,100676.25
2023-08-15T03:47:42.431Z,100680.53
2023-08-15T03:50:47.061Z,100683.16
2023-08-15T03:53:53.154Z,100690.66
2023-08-15T03:56:56.753Z,100696.16
2023-08-15T04:00:00.186Z,100702.75
2023-08-15T04:03:03.451Z,100704.75
2023-08-15T04:06:06.897Z,100711.94
2023-08-15T04:09:30.504Z,100711.31
2023-08-15T04:12:34.998Z,100718.53
2023-08-15T04:15:39.148Z,100718.22
2023-08-15T04:18:43.761Z,100717.75
2023-08-15T04:21:47.205Z,100721.13
2023-08-15T04:24:50.456Z,100721.25
2023-08-15T04:27:53.582Z,100725.13
2023-08-15T04:30:57.462Z,100724.19
2023-08-15T04:34:00.969Z,100727.97
2023-08-15T04:37:04.096Z,100721.69
2023-08-15T04:40:14.113Z,100730.59
2023-08-15T04:43:17.651Z,100728.91
2023-08-15T04:46:21.985Z,100720.13
2023-08-15T04:49:25.062Z,100718.41
2023-08-15T04:52:28.178Z,100728.00
2023-08-15T04:55:31.445Z,100735.44
2023-08-15T04:58:34.752Z,100732.00
2023-08-15T05:01:37.783Z,100730.88
2023-08-15T05:04:40.878Z,100738.75
2023-08-15T05:07:44.329Z,100738.63
2023-08-15T05:10:47.536Z,100732.84
2023-08-15T05:13:50.723Z,100730.56
2023-08-15T05:16:55.234Z,100730.81
2023-08-15T05:19:58.708Z,100728.84
2023-08-15T05:23:02.137Z,100734.22
2023-08-15T05:26:05.705Z,100741.16
2023-08-15T05:29:09.249Z,100728.00
2023-08-15T05:32:12.916Z,100731.44
2023-08-15T05:35:16.036Z,100735.13
2023-08-15T05:38:19.058Z,100730.94
2023-08-15T05:41:21.954Z,100740.00
2023-08-15T05:44:25.000Z,100739.22
2023-08-15T05:47:28.422Z,100740.88
2023-08-15T05:50:31.813Z,100742.91
2023-08-15T05:53:35.245Z,100733.91
2023-08-15T05:56:38.644Z,100746.34
2023-08-15T05:59:41.697Z,100738.88
2023-08-15T06:02:45.807Z,100732.69
2023-08-15T06:05:49.693Z,100746.03
2023-08-15T06:08:53.078Z,100747.81
2023-08-15T06:11:56.352Z,100733.06
2023-08-15T06:14:59.910Z,100736.88
2023-08-15T06:18:03.471Z,100741.00
2023-08-15T06:21:06.982Z,100742.97
2023-08-15T06:24:13.495Z,100740.72
2023-08-15T06:27:16.980Z,100734.78
2023-08-15T06:30:20.389Z,100732.81
2023-08-15T06:33:23.505Z,100729.63
2023-08-15T06:36:27.300Z,100727.25
2023-08-15T06:39:30.455Z,100732.91
2023-08-15T06:42:33.718Z,100722.81
2023-08-15T06:45:39.530Z,100734.00
2023-08-15T06:48:42.848Z,100732.25
2023-08-15T06:51:45.963Z,100733.84
2023-08-15T06:54:49.400Z,100725.53
2023-08-15T06:57:52.909Z,100731.44
2023-08-15T07:00:56.497Z,100723.38
2023-08-15T07:03:59.827Z,100729.72
2023-08-15T07:07:04.224Z,100722.13
2023-08-15T07:10:08.044Z,100733.56
2023-08-15T07:13:11.220Z,100723.44
2023-08-15T07:16:14.312Z,100733.13
2023-08-15T07:19:17.323Z,100730.56
2023-08-15T07:22:20.783Z,100725.78
2023-08-15T07:25:24.262Z,100720.72
2023-08-15T07:28:29.460Z,100729.06
2023-08-15T07:31:32.797Z,100734.59
2023-08-15T07:34:35.932Z,100728.25
2023-08-15T07:37:38.854Z,100726.75
2023-08-15T07:40:41.907Z,100719.41
2023-08-15T07:43:45.018Z,100717.41
2023-08-15T07:46:48.217Z,100715.38
2023-08-15T07:49:51.433Z,100723.22
2023-08-15T07:52:56.378Z,100725.50
2023-08-15T07:55:59.688Z,100731.50
2023-08-15T07:59:04.520Z,100722.88
2023-08-15T08:02:07.910Z,100722.09
2023-08-15T08:05:13.046Z,100726.84
2023-08-15T08:08:16.202Z,100722.78
2023-08-15T08:11:19.535Z,100716.44
2023-08-15T08:14:22.810Z,100717.19
2023-08-15T08:17:26.337Z,100718.41
2023-08-15T08:20:30.684Z,100721.34
2023-08-15T08:23:33.883Z,100716.47
2023-08-15T08:26:37.339Z,100714.22
2023-08-15T08:29:40.688Z,100712.59
2023-08-15T08:32:44.684Z,100714.75
2023-08-15T08:35:48.238Z,100721.34
2023-08-15T08:40:29.845Z,100708.78
2023-08-15T08:42:18.671Z,100714.22
2023-08-15T08:45:26.858Z,100711.91
2023-08-15T08:48:30.644Z,100712.84
2023-08-15T08:51:35.586Z,100724.06
2023-08-15T08:54:56.643Z,100718.44
2023-08-15T08:58:04.039Z,100714.66
2023-08-15T09:01:07.564Z,100710.00
2023-08-15T09:04:12.047Z,100709.97
2023-08-15T09:07:19.181Z,100708.47
2023-08-15T09:10:23.586Z,100698.22
2023-08-15T09:13:26.654Z,100705.31
2023-08-15T09:16:30.378Z,100695.28
2023-08-15T09:19:40.676Z,100694.75
2023-08-15T09:22:48.400Z,100696.47
2023-08-15T09:25:57.153Z,100700.22
2023-08-15T09:29:00.595Z,100700.91
2023-08-15T09:32:04.370Z,100703.06
2023-08-15T09:35:10.717Z,100697.38
2023-08-15T09:38:17.585Z,100697.03
2023-08-15T09:41:26.806Z,100704.63
2023-08-15T09:44:34.510Z,100696.38
2023-08-15T09:47:39.575Z,100695.63
2023-08-15T09:50:44.957Z,100697.72
2023-08-15T09:53:48.705Z,100694.41
2023-08-15T09:56:55.128Z,100691.84
2023-08-15T10:00:01.044Z,100698.25
2023-08-15T10:03:39.498Z,100692.53
2023-08-15T10:06:44.748Z,100687.06
2023-08-15T10:09:49.931Z,100688.47
2023-08-15T10:12:55.582Z,100699.66
2023-08-15T10:16:01.309Z,100694.91
2023-08-15T10:19:04.702Z,100693.63
2023-08-15T10:22:07.799Z,100696.56
2023-08-15T10:25:29.239Z,100697.25
2023-08-15T10:28:35.461Z,100690.56
2023-08-15T10:31:40.745Z,100703.66
2023-08-15T10:34:43.866Z,100697.06
2023-08-15T10:37:49.481Z,100693.72
2023-08-15T10:41:01.344Z,100686.72
2023-08-15T10:44:09.414Z,100695.34
2023-08-15T10:47:24.944Z,100684.78
2023-08-15T10:50:28.182Z,100680.13
2023-08-15T10:53:31.504Z,100677.94
2023-08-15T10:56:37.432Z,100675.44
2023-08-15T10:59:41.048Z,100684.13
2023-08-15T11:02:44.075Z,100681.88
2023-08-15T11:05:49.936Z,100671.47
2023-08-15T11:08:59.097Z,100673.91
2023-08-15T11:12:10.055Z,100666.25
2023-08-15T11:15:13.337Z,100661.72
2023-08-15T11:18:24.722Z,100659.56
2023-08-15T11:21:29.535Z,100655.56
2023-08-15T11:24:33.873Z,100656.34
2023-08-15T11:27:41.444Z,100653.00
2023-08-15T11:30:45.119Z,100644.50
2023-08-15T11:33:51.656Z,100637.63
2023-08-15T11:36:57.083Z,100643.69
2023-08-15T11:40:00.588Z,100638.97
2023-08-15T11:43:51.954Z,100639.75
2023-08-15T11:46:33.538Z,100635.06
2023-08-15T11:49:47.514Z,100631.16
2023-08-15T11:52:53.585Z,100638.66
2023-08-15T11:55:57.158Z,100630.03
2023-08-15T11:59:08.004Z,100623.44
2023-08-15T12:02:12.511Z,100615.56
2023-08-15T12:05:17.770Z,100619.50
2023-08-15T12:08:21.171Z,100617.25
2023-08-15T12:11:25.377Z,100615.38
2023-08-15T12:14:38.723Z,100608.22
2023-08-15T12:17:49.499Z,100605.78
2023-08-15T12:20:52.845Z,100613.53
2023-08-15T12:23:57.317Z,100602.88
2023-08-15T12:27:02.917Z,100607.84
2023-08-15T12:30:13.626Z,100600.41
2023-08-15T12:33:31.265Z,100599.41
2023-08-15T12:36:38.592Z,100593.44
2023-08-15T12:39:41.944Z,100589.13
2023-08-15T12:42:45.301Z,100583.16
2023-08-15T12:45:48.767Z,100583.13
2023-08-15T12:48:52.156Z,100584.44
2023-08-15T12:51:55.321Z,100578.25
2023-08-15T12:54:58.395Z,100572.63
2023-08-15T12:58:04.122Z,100571.13
2023-08-15T13:01:07.642Z,100571.91
2023-08-15T13:04:13.570Z,100562.28
2023-08-15T13:07:16.826Z,100566.59
2023-08-15T13:10:20.054Z,100564.91
2023-08-15T13:13:23.763Z,100558.13
2023-08-15T13:16:27.087Z,100557.56
2023-08-15T13:19:31.114Z,100558.28
2023-08-15T13:22:34.580Z,100560.53
2023-08-15T13:25:37.896Z,100554.72
2023-08-15T13:28:41.122Z,100549.63
2023-08-15T13:31:44.597Z,100548.69
2023-08-15T13:34:49.309Z,100547.56
2023-08-15T13:37:52.554Z,100545.88
2023-08-15T13:40:56.110Z,100542.41
2023-08-15T13:43:59.266Z,100537.03
2023-08-15T13:47:02.596Z,100534.91
2023-08-15T13:50:07.579Z,100533.06
2023-08-15T13:53:11.481Z,100523.03
2023-08-15T13:56:15.788Z,100525.69
2023-08-15T13:59:19.305Z,100523.03
2023-08-15T14:02:22.506Z,100529.63
2023-08-15T14:05:26.474Z,100528.13
2023-08-15T14:08:32.978Z,100519.88
2023-08-15T14:11:37.146Z,100522.31
2023-08-15T14:14:40.411Z,100522.81
2023-08-15T14:17:47.439Z,100522.22
2023-08-15T14:20:50.464Z,100516.50
2023-08-15T14:23:53.433Z,100519.13
2023-08-15T14:26:56.913Z,100512.94
2023-08-15T14:30:03.018Z,100507.50
2023-08-15T14:33:08.298Z,100513.50
2023-08-15T14:36:11.545Z,100507.38
2023-08-15T14:39:14.631Z,100507.38
2023-08-15T14:42:21.369Z,100505.06
2023-08-15T14:45:24.800Z,100504.78
2023-08-15T14:48:29.549Z,100500.06
2023-08-15T14:51:32.905Z,100502.16
2023-08-15T14:54:36.444Z,100496.91
2023-08-15T14:57:42.484Z,100505.63
2023-08-15T15:00:47.969Z,100502.78
2023-08-15T15:03:51.151Z,100504.69
2023-08-15T15:06:54.707Z,100503.31
2023-08-15T15:10:00.407Z,100500.56
2023-08-15T15:13:04.490Z,100503.94
2023-08-15T15:16:08.053Z,100497.00
2023-08-15T15:19:11.314Z,100487.91
2023-08-15T15:22:14.510Z,100489.53
2023-08-15T15:25:18.050Z,100485.13
2023-08-15T15:28:24.316Z,100489.41
2023-08-15T15:31:27.421Z,100479.69
2023-08-15T15:34:30.727Z,100482.88
2023-08-15T15:37:34.253Z,100476.22
2023-08-15T15:40:37.950Z,100472.13
2023-08-15T15:43:42.270Z,100476.03
2023-08-15T15:46:54.638Z,100467.19
2023-08-15T15:49:59.110Z,100472.19
2023-08-15T15:53:02.474Z,100470.91
2023-08-15T15:56:06.021Z,100474.03
2023-08-15T15:59:09.188Z,100470.06
2023-08-15T16:02:12.546Z,100473.00
2023-08-15T16:05:16.260Z,100472.19
2023-08-15T16:08:20.057Z,100468.97
2023-08-15T16:11:23.171Z,100473.69
2023-08-15T16:14:26.639Z,100465.44
2023-08-15T16:17:30.314Z,100467.41
2023-08-15T16:20:33.761Z,100471.00
2023-08-15T16:23:37.194Z,100472.44
2023-08-15T16:26:40.439Z,100479.53
2023-08-15T16:29:43.516Z,100477.19
2023-08-15T16:32:49.284Z,100472.56
2023-08-15T16:35:52.720Z,100487.41
2023-08-15T16:38:56.015Z,100490.00
2023-08-15T16:41:59.083Z,100485.38
2023-08-15T16:45:02.317Z,100481.16
2023-08-15T16:48:07.652Z,100483.00
2023-08-15T16:51:11.245Z,100480.31
2023-08-15T16:54:14.419Z,100485.38
2023-08-15T16:57:19.248Z,100482.28
2023-08-15T17:00:24.637Z,100483.09
2023-08-15T17:03:27.911Z,100488.47
2023-08-15T17:06:31.355Z,100489.41
2023-08-15T17:09:34.736Z,100482.19
2023-08-15T17:12:40.992Z,100487.97
2023-08-15T17:15:46.533Z,100494.22
2023-08-15T17:18:49.988Z,100494.16
2023-08-15T17:21:53.036Z,100491.91
2023-08-15T17:24:57.001Z,100490.72
2023-08-15T17:28:00.005Z,100494.09
2023-08-15T17:31:02.963Z,100497.28
2023-08-15T17:34:06.411Z,100501.53
2023-08-15T17:37:10.747Z,100506.13
2023-08-15T17:40:13.658Z,100507.06
2023-08-15T17:43:16.622Z,100505.09
2023-08-15T17:46:19.687Z,100508.19
2023-08-15T17:49:22.938Z,100515.97
2023-08-15T17:52:26.237Z,100526.19
2023-08-15T17:55:29.234Z,100524.78
2023-08-15T17:58:49.272Z,100522.03
2023-08-15T18:01:54.726Z,100530.00
2023-08-15T18:04:58.480Z,100526.53
2023-08-15T18:08:02.286Z,100525.38
2023-08-15T18:11:05.724Z,100528.97
2023-08-15T18:14:08.986Z,100517.13
2023-08-15T18:17:12.304Z,100525.28
2023-08-15T18:20:15.690Z,100523.50
2023-08-15T18:23:19.107Z,100530.09
2023-08-15T18:26:25.044Z,100527.09
2023-08-15T18:29:31.306Z,100530.75
2023-08-15T18:32:34.723Z,100528.00
2023-08-15T18:35:39.239Z,100530.09
2023-08-15T18:38:42.666Z,100522.81
2023-08-15T18:41:45.672Z,100536.28
2023-08-15T18:44:48.849Z,100535.06
2023-08-15T18:47:55.199Z,100531.81
2023-08-15T18:50:58.436Z,100532.06
2023-08-15T18:54:01.653Z,100534.91
2023-08-15T18:57:04.732Z,100534.44
2023-08-15T19:00:11.932Z,100532.69
2023-08-15T19:03:16.235Z,100533.28
2023-08-15T19:06:19.492Z,100541.44
2023-08-15T19:09:23.941Z,100540.72
2023-08-15T19:12:29.920Z,100531.41
2023-08-15T19:15:33.348Z,100544.09
2023-08-15T19:18:39.369Z,100538.56
2023-08-15T19:21:42.760Z,100544.19
2023-08-15T19:24:46.553Z,100551.00
2023-08-15T19:27:52.368Z,100555.84
2023-08-15T19:30:55.547Z,100562.97
2023-08-15T19:33:58.980Z,100563.97
2023-08-15T19:37:05.228Z,100565.00
2023-08-15T19:40:11.833Z,100570.09
2023-08-15T19:43:15.265Z,100569.09
2023-08-15T19:46:18.598Z,100569.09
2023-08-15T19:49:22.095Z,100575.69
2023-08-15T19:52:26.039Z,100577.47
2023-08-15T19:55:33.184Z,100575.19
2023-08-15T19:58:37.637Z,100580.53
2023-08-15T20:01:44.031Z,100585.59
2023-08-15T20:04:47.702Z,100587.38
2023-08-15T20:07:51.036Z,100588.13
2023-08-15T20:10:55.724Z,100589.38
2023-08-15T20:13:58.980Z,100590.94
2023-08-15T20:17:02.367Z,100598.75
2023-08-15T20:20:06.890Z,100602.81
2023-08-15T20:23:09.938Z,100608.63
2023-08-15T20:26:13.116Z,100615.69
2023-08-15T20:29:16.084Z,100616.97
2023-08-15T20:32:19.338Z,100621.00
2023-08-15T20:35:23.337Z,100617.47
2023-08-15T20:38:26.686Z,100631.38
2023-08-15T20:41:29.832Z,100616.97
2023-08-15T20:44:33.344Z,100626.31
2023-08-15T20:47:37.924Z,100630.09
2023-08-15T20:50:40.985Z,100634.13
2023-08-15T20:53:44.057Z,100642.97
2023-08-15T20:56:47.318Z,100652.25
2023-08-15T20:59:51.210Z,100660.59
2023-08-15T21:02:54.307Z,100651.72
2023-08-15T21:05:57.432Z,100655.25
2023-08-15T21:09:00.779Z,100665.34
2023-08-15T21:12:07.373Z,100652.97
2023-08-15T21:15:11.031Z,100652.47
2023-08-15T21:18:16.800Z,100649.44
2023-08-15T21:21:20.171Z,100656.78
2023-08-15T21:24:23.558Z,100659.53
2023-08-15T21:27:26.604Z,100653.66
2023-08-15T21:30:29.768Z,100649.38
2023-08-15T21:33:33.013Z,100656.72
2023-08-15T21:36:37.700Z,100660.69
2023-08-15T21:39:40.727Z,100656.88
2023-08-15T21:42:44.156Z,100660.91
2023-08-15T21:45:47.620Z,100660.16
2023-08-15T21:48:51.129Z,100657.78
2023-08-15T21:51:54.298Z,100652.03
2023-08-15T21:54:58.202Z,100642.59
2023-08-15T21:58:01.280Z,100639.31
2023-08-15T22:01:04.332Z,100648.63
2023-08-15T22:04:07.723Z,100648.78
2023-08-15T22:07:11.489Z,100647.97
2023-08-15T22:10:14.708Z,100647.16
2023-08-15T22:13:17.875Z,100651.44
2023-08-15T22:19:40.951Z,100654.63
2023-08-15T22:22:44.104Z,100656.06
2023-08-15T22:25:48.160Z,100657.47
2023-08-15T22:28:51.381Z,100664.25
2023-08-15T22:31:54.814Z,100668.03
2023-08-15T22:34:58.186Z,100664.97
2023-08-15T22:38:01.240Z,100647.19
2023-08-15T22:41:04.478Z,100656.00
2023-08-15T22:44:08.183Z,100655.41
2023-08-15T22:47:11.304Z,100654.88
2023-08-15T22:50:17.323Z,100658.41
2023-08-15T22:53:21.117Z,100643.50
2023-08-15T22:56:25.012Z,100641.28
2023-08-15T22:59:28.179Z,100647.81
2023-08-15T23:02:31.542Z,100646.56
2023-08-15T23:05:35.132Z,100640.63
2023-08-15T23:08:38.613Z,100638.00
2023-08-15T23:11:42.011Z,100644.31
2023-08-15T23:14:45.337Z,100641.22
2023-08-15T23:17:51.306Z,100634.81
2023-08-15T23:20:57.665Z,100635.59
2023-08-15T23:24:00.759Z,100633.72
2023-08-15T23:27:03.969Z,100635.66
2023-08-15T23:30:09.443Z,100635.53
2023-08-15T23:33:15.024Z,100634.03
2023-08-15T23:36:21.521Z,100629.66
2023-08-15T23:39:26.248Z,100626.41
2023-08-15T23:42:29.254Z,100627.56
2023-08-15T23:45:35.926Z,100614.97
2023-08-15T23:48:39.206Z,100618.72
2023-08-15T23:51:42.230Z,100617.47
2023-08-15T23:54:45.650Z,100617.88
2023-08-15T23:57:48.842Z,100619.16
